sensor_id;sensor_type;location;lat;lon;timestamp;temperature;humidity
45785;DHT22;31489;51.404;5.474;2023-03-14T00:01:15;15.50;69.50
45785;DHT22;31489;51.404;5.474;2023-03-14T00:03:41;15.50;68.30
45785;DHT22;31489;51.404;5.474;2023-03-14T00:06:07;15.50;69.10
45785;DHT22;31489;51.404;5.474;2023-03-14T00:08:33;15.50;69.00
45785;DHT22;31489;51.404;5.474;2023-03-14T00:11:04;15.50;69.00
45785;DHT22;31489;51.404;5.474;2023-03-14T00:13:30;15.50;68.60
45785;DHT22;31489;51.404;5.474;2023-03-14T00:16:02;15.50;68.90
45785;DHT22;31489;51.404;5.474;2023-03-14T00:18:28;15.40;68.30
45785;DHT22;31489;51.404;5.474;2023-03-14T00:20:53;15.40;68.50
45785;DHT22;31489;51.404;5.474;2023-03-14T00:23:19;15.40;68.40
45785;DHT22;31489;51.404;5.474;2023-03-14T00:25:44;15.40;68.10
45785;DHT22;31489;51.404;5.474;2023-03-14T00:28:10;15.40;67.80
45785;DHT22;31489;51.404;5.474;2023-03-14T00:30:37;15.30;67.70
45785;DHT22;31489;51.404;5.474;2023-03-14T00:33:03;15.30;67.50
45785;DHT22;31489;51.404;5.474;2023-03-14T00:35:28;15.30;67.30
45785;DHT22;31489;51.404;5.474;2023-03-14T00:37:54;15.30;67.10
45785;DHT22;31489;51.404;5.474;2023-03-14T00:40:20;15.30;67.00
45785;DHT22;31489;51.404;5.474;2023-03-14T00:42:45;15.20;66.90
45785;DHT22;31489;51.404;5.474;2023-03-14T00:45:11;15.20;66.80
45785;DHT22;31489;51.404;5.474;2023-03-14T00:47:37;15.20;66.80
45785;DHT22;31489;51.404;5.474;2023-03-14T00:50:03;15.20;66.90
45785;DHT22;31489;51.404;5.474;2023-03-14T00:52:29;15.10;66.80
45785;DHT22;31489;51.404;5.474;2023-03-14T00:54:54;15.10;66.90
45785;DHT22;31489;51.404;5.474;2023-03-14T00:57:20;15.10;66.90
45785;DHT22;31489;51.404;5.474;2023-03-14T00:59:46;15.10;66.90
45785;DHT22;31489;51.404;5.474;2023-03-14T01:02:11;15.10;66.80
45785;DHT22;31489;51.404;5.474;2023-03-14T01:04:37;15.10;66.90
45785;DHT22;31489;51.404;5.474;2023-03-14T01:07:04;15.00;66.80
45785;DHT22;31489;51.404;5.474;2023-03-14T01:09:30;15.00;66.60
45785;DHT22;31489;51.404;5.474;2023-03-14T01:11:56;15.00;66.80
45785;DHT22;31489;51.404;5.474;2023-03-14T01:14:21;15.00;66.80
45785;DHT22;31489;51.404;5.474;2023-03-14T01:16:47;14.90;66.80
45785;DHT22;31489;51.404;5.474;2023-03-14T01:19:13;14.90;66.70
45785;DHT22;31489;51.404;5.474;2023-03-14T01:21:38;14.90;66.70
45785;DHT22;31489;51.404;5.474;2023-03-14T01:24:05;14.80;66.60
45785;DHT22;31489;51.404;5.474;2023-03-14T01:26:33;14.90;66.70
45785;DHT22;31489;51.404;5.474;2023-03-14T01:28:59;14.80;66.60
45785;DHT22;31489;51.404;5.474;2023-03-14T01:31:25;14.90;67.00
45785;DHT22;31489;51.404;5.474;2023-03-14T01:33:51;14.90;67.00
45785;DHT22;31489;51.404;5.474;2023-03-14T01:36:17;14.80;66.90
45785;DHT22;31489;51.404;5.474;2023-03-14T01:38:43;14.80;66.80
45785;DHT22;31489;51.404;5.474;2023-03-14T01:41:17;14.80;66.90
45785;DHT22;31489;51.404;5.474;2023-03-14T01:43:43;14.80;66.60
45785;DHT22;31489;51.404;5.474;2023-03-14T01:51:31;14.80;66.60
45785;DHT22;31489;51.404;5.474;2023-03-14T01:57:06;14.80;66.60
45785;DHT22;31489;51.404;5.474;2023-03-14T01:59:37;14.80;67.10
45785;DHT22;31489;51.404;5.474;2023-03-14T02:02:04;14.80;67.40
45785;DHT22;31489;51.404;5.474;2023-03-14T02:04:34;14.80;67.40
45785;DHT22;31489;51.404;5.474;2023-03-14T02:07:17;14.70;67.20
45785;DHT22;31489;51.404;5.474;2023-03-14T02:09:44;14.70;66.70
45785;DHT22;31489;51.404;5.474;2023-03-14T02:12:12;14.80;67.70
45785;DHT22;31489;51.404;5.474;2023-03-14T02:14:39;14.70;67.50
45785;DHT22;31489;51.404;5.474;2023-03-14T02:17:08;14.70;67.90
45785;DHT22;31489;51.404;5.474;2023-03-14T02:20:06;14.70;68.30
45785;DHT22;31489;51.404;5.474;2023-03-14T02:22:34;14.70;68.00
45785;DHT22;31489;51.404;5.474;2023-03-14T02:28:03;14.70;68.50
45785;DHT22;31489;51.404;5.474;2023-03-14T02:30:31;14.70;69.60
45785;DHT22;31489;51.404;5.474;2023-03-14T02:33:06;14.70;69.20
45785;DHT22;31489;51.404;5.474;2023-03-14T02:35:44;14.70;68.90
45785;DHT22;31489;51.404;5.474;2023-03-14T02:40:45;14.60;69.40
45785;DHT22;31489;51.404;5.474;2023-03-14T02:43:14;14.60;69.50
45785;DHT22;31489;51.404;5.474;2023-03-14T02:45:46;14.60;69.60
45785;DHT22;31489;51.404;5.474;2023-03-14T02:48:16;14.50;69.50
45785;DHT22;31489;51.404;5.474;2023-03-14T02:50:47;14.50;69.60
45785;DHT22;31489;51.404;5.474;2023-03-14T02:53:19;14.50;69.80
45785;DHT22;31489;51.404;5.474;2023-03-14T02:55:50;14.50;69.80
45785;DHT22;31489;51.404;5.474;2023-03-14T02:58:19;14.50;70.00
45785;DHT22;31489;51.404;5.474;2023-03-14T03:00:45;14.50;70.10
45785;DHT22;31489;51.404;5.474;2023-03-14T03:03:11;14.40;70.20
45785;DHT22;31489;51.404;5.474;2023-03-14T03:05:37;14.40;70.20
45785;DHT22;31489;51.404;5.474;2023-03-14T03:08:03;14.40;70.30
45785;DHT22;31489;51.404;5.474;2023-03-14T03:10:29;14.40;70.20
45785;DHT22;31489;51.404;5.474;2023-03-14T03:12:59;14.40;70.30
45785;DHT22;31489;51.404;5.474;2023-03-14T03:15:24;14.40;70.30
45785;DHT22;31489;51.404;5.474;2023-03-14T03:17:50;14.40;70.30
45785;DHT22;31489;51.404;5.474;2023-03-14T03:20:16;14.40;70.30
45785;DHT22;31489;51.404;5.474;2023-03-14T03:22:41;14.40;70.40
45785;DHT22;31489;51.404;5.474;2023-03-14T03:25:08;14.40;70.30
45785;DHT22;31489;51.404;5.474;2023-03-14T03:27:35;14.40;70.20
45785;DHT22;31489;51.404;5.474;2023-03-14T03:30:03;14.40;70.30
45785;DHT22;31489;51.404;5.474;2023-03-14T03:32:29;14.40;70.30
45785;DHT22;31489;51.404;5.474;2023-03-14T03:34:54;14.40;70.40
45785;DHT22;31489;51.404;5.474;2023-03-14T03:37:20;14.30;70.20
45785;DHT22;31489;51.404;5.474;2023-03-14T03:39:46;14.30;70.10
45785;DHT22;31489;51.404;5.474;2023-03-14T03:42:12;14.30;70.30
45785;DHT22;31489;51.404;5.474;2023-03-14T03:44:37;14.30;70.10
45785;DHT22;31489;51.404;5.474;2023-03-14T03:47:03;14.30;70.20
45785;DHT22;31489;51.404;5.474;2023-03-14T03:49:30;14.30;70.30
45785;DHT22;31489;51.404;5.474;2023-03-14T03:51:56;14.20;70.20
45785;DHT22;31489;51.404;5.474;2023-03-14T03:54:22;14.20;70.20
45785;DHT22;31489;51.404;5.474;2023-03-14T03:56:48;14.20;70.10
45785;DHT22;31489;51.404;5.474;2023-03-14T03:59:13;14.20;70.10
45785;DHT22;31489;51.404;5.474;2023-03-14T04:01:39;14.10;70.20
45785;DHT22;31489;51.404;5.474;2023-03-14T04:04:05;14.10;70.20
45785;DHT22;31489;51.404;5.474;2023-03-14T04:06:31;14.00;70.30
45785;DHT22;31489;51.404;5.474;2023-03-14T04:08:56;14.00;70.40
45785;DHT22;31489;51.404;5.474;2023-03-14T04:11:22;14.00;70.50
45785;DHT22;31489;51.404;5.474;2023-03-14T04:13:48;14.00;70.80
45785;DHT22;31489;51.404;5.474;2023-03-14T04:16:19;13.90;71.00
45785;DHT22;31489;51.404;5.474;2023-03-14T04:18:45;13.90;71.00
45785;DHT22;31489;51.404;5.474;2023-03-14T04:21:10;13.90;71.50
45785;DHT22;31489;51.404;5.474;2023-03-14T04:23:36;13.90;71.80
45785;DHT22;31489;51.404;5.474;2023-03-14T04:26:02;13.80;72.10
45785;DHT22;31489;51.404;5.474;2023-03-14T04:28:28;13.80;72.40
45785;DHT22;31489;51.404;5.474;2023-03-14T04:30:54;13.80;72.70
45785;DHT22;31489;51.404;5.474;2023-03-14T04:33:20;13.70;72.90
45785;DHT22;31489;51.404;5.474;2023-03-14T04:35:46;13.70;73.10
45785;DHT22;31489;51.404;5.474;2023-03-14T04:38:15;13.70;73.30
45785;DHT22;31489;51.404;5.474;2023-03-14T04:40:41;13.60;73.60
45785;DHT22;31489;51.404;5.474;2023-03-14T04:43:08;13.60;73.90
45785;DHT22;31489;51.404;5.474;2023-03-14T04:45:35;13.60;74.20
45785;DHT22;31489;51.404;5.474;2023-03-14T04:48:01;13.50;74.50
45785;DHT22;31489;51.404;5.474;2023-03-14T04:50:27;13.50;74.80
45785;DHT22;31489;51.404;5.474;2023-03-14T04:52:52;13.50;75.10
45785;DHT22;31489;51.404;5.474;2023-03-14T04:55:18;13.50;75.40
45785;DHT22;31489;51.404;5.474;2023-03-14T04:57:44;13.40;75.60
45785;DHT22;31489;51.404;5.474;2023-03-14T05:00:10;13.40;75.90
45785;DHT22;31489;51.404;5.474;2023-03-14T05:02:35;13.30;76.10
45785;DHT22;31489;51.404;5.474;2023-03-14T05:05:01;13.30;76.30
45785;DHT22;31489;51.404;5.474;2023-03-14T05:07:27;13.30;76.50
45785;DHT22;31489;51.404;5.474;2023-03-14T05:09:52;13.20;76.60
45785;DHT22;31489;51.404;5.474;2023-03-14T05:12:19;13.20;76.80
45785;DHT22;31489;51.404;5.474;2023-03-14T05:14:45;13.20;77.10
45785;DHT22;31489;51.404;5.474;2023-03-14T05:17:10;13.20;77.20
45785;DHT22;31489;51.404;5.474;2023-03-14T05:19:36;13.20;77.30
45785;DHT22;31489;51.404;5.474;2023-03-14T05:22:02;13.20;77.40
45785;DHT22;31489;51.404;5.474;2023-03-14T05:24:28;13.20;77.60
45785;DHT22;31489;51.404;5.474;2023-03-14T05:26:54;13.20;77.80
45785;DHT22;31489;51.404;5.474;2023-03-14T05:29:19;13.20;77.90
45785;DHT22;31489;51.404;5.474;2023-03-14T05:31:45;13.20;78.00
45785;DHT22;31489;51.404;5.474;2023-03-14T05:34:10;13.20;78.10
45785;DHT22;31489;51.404;5.474;2023-03-14T05:36:36;13.30;78.20
45785;DHT22;31489;51.404;5.474;2023-03-14T05:39:02;13.30;78.20
45785;DHT22;31489;51.404;5.474;2023-03-14T05:41:28;13.30;78.40
45785;DHT22;31489;51.404;5.474;2023-03-14T05:43:54;13.20;78.30
45785;DHT22;31489;51.404;5.474;2023-03-14T05:46:20;13.30;78.50
45785;DHT22;31489;51.404;5.474;2023-03-14T05:48:46;13.30;78.60
45785;DHT22;31489;51.404;5.474;2023-03-14T05:51:11;13.30;78.70
45785;DHT22;31489;51.404;5.474;2023-03-14T05:53:37;13.30;78.70
45785;DHT22;31489;51.404;5.474;2023-03-14T05:56:03;13.20;78.80
45785;DHT22;31489;51.404;5.474;2023-03-14T05:58:28;13.20;79.00
45785;DHT22;31489;51.404;5.474;2023-03-14T06:00:54;13.20;79.10
45785;DHT22;31489;51.404;5.474;2023-03-14T06:03:19;13.20;79.20
45785;DHT22;31489;51.404;5.474;2023-03-14T06:05:45;13.20;79.40
45785;DHT22;31489;51.404;5.474;2023-03-14T06:08:11;13.20;79.60
45785;DHT22;31489;51.404;5.474;2023-03-14T06:10:36;13.20;79.70
45785;DHT22;31489;51.404;5.474;2023-03-14T06:13:02;13.20;79.70
45785;DHT22;31489;51.404;5.474;2023-03-14T06:15:28;13.20;79.90
45785;DHT22;31489;51.404;5.474;2023-03-14T06:17:57;13.20;80.00
45785;DHT22;31489;51.404;5.474;2023-03-14T06:20:22;13.20;80.10
45785;DHT22;31489;51.404;5.474;2023-03-14T06:22:48;13.20;80.10
45785;DHT22;31489;51.404;5.474;2023-03-14T06:25:14;13.20;80.30
45785;DHT22;31489;51.404;5.474;2023-03-14T06:27:40;13.20;80.30
45785;DHT22;31489;51.404;5.474;2023-03-14T06:30:06;13.20;80.40
45785;DHT22;31489;51.404;5.474;2023-03-14T06:32:32;13.20;80.40
45785;DHT22;31489;51.404;5.474;2023-03-14T06:34:57;13.20;80.40
45785;DHT22;31489;51.404;5.474;2023-03-14T06:37:27;13.20;80.40
45785;DHT22;31489;51.404;5.474;2023-03-14T06:39:53;13.30;80.50
45785;DHT22;31489;51.404;5.474;2023-03-14T06:42:18;13.30;80.40
45785;DHT22;31489;51.404;5.474;2023-03-14T06:44:44;13.30;80.40
45785;DHT22;31489;51.404;5.474;2023-03-14T06:47:10;13.30;80.40
45785;DHT22;31489;51.404;5.474;2023-03-14T06:49:35;13.30;80.50
45785;DHT22;31489;51.404;5.474;2023-03-14T06:52:01;13.30;80.50
45785;DHT22;31489;51.404;5.474;2023-03-14T06:54:26;13.40;80.60
45785;DHT22;31489;51.404;5.474;2023-03-14T06:56:52;13.40;80.70
45785;DHT22;31489;51.404;5.474;2023-03-14T06:59:18;13.40;80.80
45785;DHT22;31489;51.404;5.474;2023-03-14T07:01:43;13.40;80.90
45785;DHT22;31489;51.404;5.474;2023-03-14T07:04:09;13.50;80.90
45785;DHT22;31489;51.404;5.474;2023-03-14T07:06:35;13.50;81.00
45785;DHT22;31489;51.404;5.474;2023-03-14T07:09:01;13.50;80.90
45785;DHT22;31489;51.404;5.474;2023-03-14T07:11:26;13.50;80.80
45785;DHT22;31489;51.404;5.474;2023-03-14T07:13:52;13.50;80.80
45785;DHT22;31489;51.404;5.474;2023-03-14T07:16:20;13.50;81.40
45785;DHT22;31489;51.404;5.474;2023-03-14T07:18:46;13.50;80.90
45785;DHT22;31489;51.404;5.474;2023-03-14T07:21:12;13.50;81.00
45785;DHT22;31489;51.404;5.474;2023-03-14T07:23:38;13.50;81.20
45785;DHT22;31489;51.404;5.474;2023-03-14T07:26:04;13.50;81.30
45785;DHT22;31489;51.404;5.474;2023-03-14T07:28:30;13.50;81.40
45785;DHT22;31489;51.404;5.474;2023-03-14T07:30:56;13.50;81.40
45785;DHT22;31489;51.404;5.474;2023-03-14T07:33:21;13.50;81.40
45785;DHT22;31489;51.404;5.474;2023-03-14T07:35:48;13.50;81.50
45785;DHT22;31489;51.404;5.474;2023-03-14T07:38:14;13.40;81.60
45785;DHT22;31489;51.404;5.474;2023-03-14T07:40:40;13.40;81.50
45785;DHT22;31489;51.404;5.474;2023-03-14T07:43:05;13.40;81.40
45785;DHT22;31489;51.404;5.474;2023-03-14T07:45:31;13.40;81.10
45785;DHT22;31489;51.404;5.474;2023-03-14T07:47:57;13.30;79.40
45785;DHT22;31489;51.404;5.474;2023-03-14T07:50:24;13.20;78.80
45785;DHT22;31489;51.404;5.474;2023-03-14T07:52:49;13.10;77.50
45785;DHT22;31489;51.404;5.474;2023-03-14T07:55:15;13.00;77.50
45785;DHT22;31489;51.404;5.474;2023-03-14T07:57:41;12.80;77.70
45785;DHT22;31489;51.404;5.474;2023-03-14T08:00:07;12.60;77.80
45785;DHT22;31489;51.404;5.474;2023-03-14T08:02:34;12.50;77.70
45785;DHT22;31489;51.404;5.474;2023-03-14T08:05:01;12.40;78.10
45785;DHT22;31489;51.404;5.474;2023-03-14T08:07:27;12.30;78.40
45785;DHT22;31489;51.404;5.474;2023-03-14T08:09:52;12.10;78.60
45785;DHT22;31489;51.404;5.474;2023-03-14T08:12:18;12.00;78.80
45785;DHT22;31489;51.404;5.474;2023-03-14T08:14:44;11.90;79.00
45785;DHT22;31489;51.404;5.474;2023-03-14T08:17:09;11.90;79.30
45785;DHT22;31489;51.404;5.474;2023-03-14T08:19:35;11.80;79.40
45785;DHT22;31489;51.404;5.474;2023-03-14T08:22:01;11.70;79.40
45785;DHT22;31489;51.404;5.474;2023-03-14T08:24:26;11.70;79.50
45785;DHT22;31489;51.404;5.474;2023-03-14T08:26:52;11.60;79.60
45785;DHT22;31489;51.404;5.474;2023-03-14T08:29:18;11.60;80.10
45785;DHT22;31489;51.404;5.474;2023-03-14T08:31:45;11.60;80.00
45785;DHT22;31489;51.404;5.474;2023-03-14T08:34:10;11.50;79.70
45785;DHT22;31489;51.404;5.474;2023-03-14T08:36:36;11.50;80.00
45785;DHT22;31489;51.404;5.474;2023-03-14T08:39:02;11.50;80.20
45785;DHT22;31489;51.404;5.474;2023-03-14T08:41:29;11.40;80.10
45785;DHT22;31489;51.404;5.474;2023-03-14T08:43:55;11.40;80.00
45785;DHT22;31489;51.404;5.474;2023-03-14T08:46:20;11.40;79.90
45785;DHT22;31489;51.404;5.474;2023-03-14T08:48:46;11.40;79.70
45785;DHT22;31489;51.404;5.474;2023-03-14T08:51:13;11.40;79.60
45785;DHT22;31489;51.404;5.474;2023-03-14T08:53:39;11.30;79.70
45785;DHT22;31489;51.404;5.474;2023-03-14T08:56:06;11.30;79.80
45785;DHT22;31489;51.404;5.474;2023-03-14T08:58:32;11.30;79.80
45785;DHT22;31489;51.404;5.474;2023-03-14T09:00:58;11.30;79.90
45785;DHT22;31489;51.404;5.474;2023-03-14T09:03:24;11.20;80.20
45785;DHT22;31489;51.404;5.474;2023-03-14T09:05:51;11.20;80.20
45785;DHT22;31489;51.404;5.474;2023-03-14T09:08:17;11.20;80.30
45785;DHT22;31489;51.404;5.474;2023-03-14T09:10:43;11.20;80.00
45785;DHT22;31489;51.404;5.474;2023-03-14T09:13:08;11.20;80.10
45785;DHT22;31489;51.404;5.474;2023-03-14T09:15:34;11.20;80.00
45785;DHT22;31489;51.404;5.474;2023-03-14T09:18:00;11.20;80.20
45785;DHT22;31489;51.404;5.474;2023-03-14T09:20:26;11.10;80.40
45785;DHT22;31489;51.404;5.474;2023-03-14T09:22:51;11.10;80.60
45785;DHT22;31489;51.404;5.474;2023-03-14T09:25:17;11.10;80.60
45785;DHT22;31489;51.404;5.474;2023-03-14T09:27:43;11.10;80.80
45785;DHT22;31489;51.404;5.474;2023-03-14T09:30:10;11.00;80.90
45785;DHT22;31489;51.404;5.474;2023-03-14T09:32:36;11.00;80.90
45785;DHT22;31489;51.404;5.474;2023-03-14T09:35:02;11.10;81.00
45785;DHT22;31489;51.404;5.474;2023-03-14T09:37:28;11.00;81.40
45785;DHT22;31489;51.404;5.474;2023-03-14T09:39:53;11.10;81.50
45785;DHT22;31489;51.404;5.474;2023-03-14T09:42:23;11.10;81.70
45785;DHT22;31489;51.404;5.474;2023-03-14T09:44:55;11.20;81.40
45785;DHT22;31489;51.404;5.474;2023-03-14T09:47:23;11.20;81.20
45785;DHT22;31489;51.404;5.474;2023-03-14T09:49:49;11.20;80.70
45785;DHT22;31489;51.404;5.474;2023-03-14T09:52:32;11.20;81.30
45785;DHT22;31489;51.404;5.474;2023-03-14T09:55:11;11.20;80.70
45785;DHT22;31489;51.404;5.474;2023-03-14T09:57:39;11.20;80.70
45785;DHT22;31489;51.404;5.474;2023-03-14T10:03:40;11.10;80.60
45785;DHT22;31489;51.404;5.474;2023-03-14T10:05:41;11.10;80.50
45785;DHT22;31489;51.404;5.474;2023-03-14T10:08:11;11.10;79.90
45785;DHT22;31489;51.404;5.474;2023-03-14T10:10:37;11.10;79.00
45785;DHT22;31489;51.404;5.474;2023-03-14T10:13:18;11.10;78.90
45785;DHT22;31489;51.404;5.474;2023-03-14T10:16:05;11.10;78.00
45785;DHT22;31489;51.404;5.474;2023-03-14T10:18:35;11.00;77.80
45785;DHT22;31489;51.404;5.474;2023-03-14T10:21:30;11.00;77.80
45785;DHT22;31489;51.404;5.474;2023-03-14T10:24:20;11.00;77.70
45785;DHT22;31489;51.404;5.474;2023-03-14T10:27:17;10.90;78.20
45785;DHT22;31489;51.404;5.474;2023-03-14T10:29:57;11.00;77.50
45785;DHT22;31489;51.404;5.474;2023-03-14T10:32:35;11.00;78.30
45785;DHT22;31489;51.404;5.474;2023-03-14T10:35:08;11.10;77.90
45785;DHT22;31489;51.404;5.474;2023-03-14T10:37:58;11.20;78.00
45785;DHT22;31489;51.404;5.474;2023-03-14T10:40:31;11.20;77.00
45785;DHT22;31489;51.404;5.474;2023-03-14T10:43:06;11.30;76.80
45785;DHT22;31489;51.404;5.474;2023-03-14T10:45:38;11.20;77.00
45785;DHT22;31489;51.404;5.474;2023-03-14T10:50:57;11.30;76.40
45785;DHT22;31489;51.404;5.474;2023-03-14T10:53:24;11.30;76.50
45785;DHT22;31489;51.404;5.474;2023-03-14T10:55:50;11.40;77.30
45785;DHT22;31489;51.404;5.474;2023-03-14T10:58:27;11.40;77.10
45785;DHT22;31489;51.404;5.474;2023-03-14T11:03:29;11.40;75.70
45785;DHT22;31489;51.404;5.474;2023-03-14T11:06:13;11.50;76.00
45785;DHT22;31489;51.404;5.474;2023-03-14T11:09:10;11.50;75.70
45785;DHT22;31489;51.404;5.474;2023-03-14T11:11:39;11.50;75.40
45785;DHT22;31489;51.404;5.474;2023-03-14T11:14:27;11.60;75.20
45785;DHT22;31489;51.404;5.474;2023-03-14T11:20:04;11.50;74.70
45785;DHT22;31489;51.404;5.474;2023-03-14T11:25:39;11.40;74.60
45785;DHT22;31489;51.404;5.474;2023-03-14T11:28:46;11.40;75.10
45785;DHT22;31489;51.404;5.474;2023-03-14T11:31:27;11.30;74.70
45785;DHT22;31489;51.404;5.474;2023-03-14T11:39:17;11.30;76.00
45785;DHT22;31489;51.404;5.474;2023-03-14T11:41:46;11.30;76.10
45785;DHT22;31489;51.404;5.474;2023-03-14T11:44:20;11.40;75.40
45785;DHT22;31489;51.404;5.474;2023-03-14T11:46:55;11.40;74.60
45785;DHT22;31489;51.404;5.474;2023-03-14T11:49:50;11.40;75.10
45785;DHT22;31489;51.404;5.474;2023-03-14T11:52:23;11.40;74.80
45785;DHT22;31489;51.404;5.474;2023-03-14T11:57:28;11.40;75.10
45785;DHT22;31489;51.404;5.474;2023-03-14T12:02:33;11.40;74.60
45785;DHT22;31489;51.404;5.474;2023-03-14T12:10:38;11.20;74.80
45785;DHT22;31489;51.404;5.474;2023-03-14T12:13:07;11.20;74.80
45785;DHT22;31489;51.404;5.474;2023-03-14T12:15:38;11.10;75.60
45785;DHT22;31489;51.404;5.474;2023-03-14T12:18:11;11.10;75.70
45785;DHT22;31489;51.404;5.474;2023-03-14T12:20:40;11.10;76.00
45785;DHT22;31489;51.404;5.474;2023-03-14T12:23:10;11.20;76.00
45785;DHT22;31489;51.404;5.474;2023-03-14T12:25:37;11.20;76.60
45785;DHT22;31489;51.404;5.474;2023-03-14T12:28:16;11.30;76.40
45785;DHT22;31489;51.404;5.474;2023-03-14T12:30:43;11.40;76.20
45785;DHT22;31489;51.404;5.474;2023-03-14T12:35:39;11.60;75.90
45785;DHT22;31489;51.404;5.474;2023-03-14T12:43:56;11.90;77.10
45785;DHT22;31489;51.404;5.474;2023-03-14T12:46:24;12.10;78.40
45785;DHT22;31489;51.404;5.474;2023-03-14T12:57:00;13.50;76.70
45785;DHT22;31489;51.404;5.474;2023-03-14T12:59:34;13.80;73.90
45785;DHT22;31489;51.404;5.474;2023-03-14T13:04:43;14.30;70.90
45785;DHT22;31489;51.404;5.474;2023-03-14T13:09:55;14.80;71.10
45785;DHT22;31489;51.404;5.474;2023-03-14T13:12:29;15.00;69.80
45785;DHT22;31489;51.404;5.474;2023-03-14T13:14:59;15.10;68.10
45785;DHT22;31489;51.404;5.474;2023-03-14T13:17:31;15.20;67.30
45785;DHT22;31489;51.404;5.474;2023-03-14T13:20:01;15.30;67.30
45785;DHT22;31489;51.404;5.474;2023-03-14T13:22:31;15.30;66.00
45785;DHT22;31489;51.404;5.474;2023-03-14T13:25:03;15.40;66.20
45785;DHT22;31489;51.404;5.474;2023-03-14T13:27:31;15.50;66.30
45785;DHT22;31489;51.404;5.474;2023-03-14T13:29:57;15.50;65.00
45785;DHT22;31489;51.404;5.474;2023-03-14T13:32:28;15.50;63.20
45785;DHT22;31489;51.404;5.474;2023-03-14T13:34:57;15.60;61.40
45785;DHT22;31489;51.404;5.474;2023-03-14T13:37:25;15.60;59.60
45785;DHT22;31489;51.404;5.474;2023-03-14T13:39:56;15.70;61.00
45785;DHT22;31489;51.404;5.474;2023-03-14T13:42:27;15.80;59.70
45785;DHT22;31489;51.404;5.474;2023-03-14T13:44:55;15.80;59.80
45785;DHT22;31489;51.404;5.474;2023-03-14T13:47:23;15.90;59.70
45785;DHT22;31489;51.404;5.474;2023-03-14T13:49:50;16.00;58.20
45785;DHT22;31489;51.404;5.474;2023-03-14T13:52:31;16.00;58.30
45785;DHT22;31489;51.404;5.474;2023-03-14T13:54:59;16.00;54.50
45785;DHT22;31489;51.404;5.474;2023-03-14T13:57:25;16.10;55.00
45785;DHT22;31489;51.404;5.474;2023-03-14T14:00:05;16.10;55.00
45785;DHT22;31489;51.404;5.474;2023-03-14T14:02:33;16.10;52.10
45785;DHT22;31489;51.404;5.474;2023-03-14T14:05:00;16.10;54.00
45785;DHT22;31489;51.404;5.474;2023-03-14T14:07:26;16.10;53.60
45785;DHT22;31489;51.404;5.474;2023-03-14T14:09:53;16.10;54.20
45785;DHT22;31489;51.404;5.474;2023-03-14T14:13:08;16.10;52.80
45785;DHT22;31489;51.404;5.474;2023-03-14T14:15:27;16.10;51.60
45785;DHT22;31489;51.404;5.474;2023-03-14T14:17:57;16.10;51.60
45785;DHT22;31489;51.404;5.474;2023-03-14T14:20:29;16.10;52.50
45785;DHT22;31489;51.404;5.474;2023-03-14T14:22:58;16.00;51.10
45785;DHT22;31489;51.404;5.474;2023-03-14T14:25:24;15.90;52.50
45785;DHT22;31489;51.404;5.474;2023-03-14T14:27:50;15.80;51.80
45785;DHT22;31489;51.404;5.474;2023-03-14T14:32:47;15.60;50.20
45785;DHT22;31489;51.404;5.474;2023-03-14T14:35:33;15.50;50.90
45785;DHT22;31489;51.404;5.474;2023-03-14T14:37:59;15.30;48.80
45785;DHT22;31489;51.404;5.474;2023-03-14T14:40:27;15.20;51.20
45785;DHT22;31489;51.404;5.474;2023-03-14T14:42:54;15.10;49.30
45785;DHT22;31489;51.404;5.474;2023-03-14T14:45:24;14.90;50.10
45785;DHT22;31489;51.404;5.474;2023-03-14T14:47:54;14.80;50.20
45785;DHT22;31489;51.404;5.474;2023-03-14T14:53:37;14.50;50.20
45785;DHT22;31489;51.404;5.474;2023-03-14T14:56:07;14.40;50.30
45785;DHT22;31489;51.404;5.474;2023-03-14T14:58:40;14.30;51.20
45785;DHT22;31489;51.404;5.474;2023-03-14T15:03:42;14.10;48.90
45785;DHT22;31489;51.404;5.474;2023-03-14T15:06:08;14.00;50.10
45785;DHT22;31489;51.404;5.474;2023-03-14T15:08:37;13.90;52.00
45785;DHT22;31489;51.404;5.474;2023-03-14T15:11:03;13.90;51.70
45785;DHT22;31489;51.404;5.474;2023-03-14T15:13:28;13.80;52.40
45785;DHT22;31489;51.404;5.474;2023-03-14T15:15:54;13.80;51.80
45785;DHT22;31489;51.404;5.474;2023-03-14T15:18:23;13.80;52.10
45785;DHT22;31489;51.404;5.474;2023-03-14T15:20:49;13.70;51.20
45785;DHT22;31489;51.404;5.474;2023-03-14T15:23:17;13.70;52.00
45785;DHT22;31489;51.404;5.474;2023-03-14T15:25:43;13.60;50.90
45785;DHT22;31489;51.404;5.474;2023-03-14T15:28:19;13.60;51.20
45785;DHT22;31489;51.404;5.474;2023-03-14T15:30:56;13.50;49.60
45785;DHT22;31489;51.404;5.474;2023-03-14T15:33:22;13.40;50.30
45785;DHT22;31489;51.404;5.474;2023-03-14T15:35:49;13.30;50.60
45785;DHT22;31489;51.404;5.474;2023-03-14T15:38:17;13.20;51.10
45785;DHT22;31489;51.404;5.474;2023-03-14T15:40:46;13.10;50.20
45785;DHT22;31489;51.404;5.474;2023-03-14T15:43:12;13.00;51.00
45785;DHT22;31489;51.404;5.474;2023-03-14T15:45:38;13.00;51.40
45785;DHT22;31489;51.404;5.474;2023-03-14T15:48:04;12.90;51.50
45785;DHT22;31489;51.404;5.474;2023-03-14T15:50:30;12.80;51.90
45785;DHT22;31489;51.404;5.474;2023-03-14T15:52:56;12.80;51.60
45785;DHT22;31489;51.404;5.474;2023-03-14T15:55:22;12.70;51.70
45785;DHT22;31489;51.404;5.474;2023-03-14T15:57:48;12.70;51.70
45785;DHT22;31489;51.404;5.474;2023-03-14T16:00:17;12.60;52.10
45785;DHT22;31489;51.404;5.474;2023-03-14T16:02:47;12.60;50.70
45785;DHT22;31489;51.404;5.474;2023-03-14T16:05:13;12.60;50.80
45785;DHT22;31489;51.404;5.474;2023-03-14T16:07:40;12.50;51.20
45785;DHT22;31489;51.404;5.474;2023-03-14T16:10:06;12.40;51.90
45785;DHT22;31489;51.404;5.474;2023-03-14T16:12:32;12.40;51.00
45785;DHT22;31489;51.404;5.474;2023-03-14T16:14:58;12.30;51.00
45785;DHT22;31489;51.404;5.474;2023-03-14T16:17:24;12.30;51.50
45785;DHT22;31489;51.404;5.474;2023-03-14T16:19:52;12.20;52.10
45785;DHT22;31489;51.404;5.474;2023-03-14T16:22:18;12.20;51.20
45785;DHT22;31489;51.404;5.474;2023-03-14T16:24:44;12.10;50.30
45785;DHT22;31489;51.404;5.474;2023-03-14T16:27:09;12.10;50.70
45785;DHT22;31489;51.404;5.474;2023-03-14T16:29:35;12.00;51.00
45785;DHT22;31489;51.404;5.474;2023-03-14T16:32:01;12.00;50.90
45785;DHT22;31489;51.404;5.474;2023-03-14T16:34:27;11.90;50.70
45785;DHT22;31489;51.404;5.474;2023-03-14T16:36:53;11.80;50.70
45785;DHT22;31489;51.404;5.474;2023-03-14T16:39:20;11.80;50.90
45785;DHT22;31489;51.404;5.474;2023-03-14T16:41:49;11.70;51.90
45785;DHT22;31489;51.404;5.474;2023-03-14T16:44:14;11.70;51.70
45785;DHT22;31489;51.404;5.474;2023-03-14T16:46:40;11.70;51.70
45785;DHT22;31489;51.404;5.474;2023-03-14T16:49:06;11.60;51.30
45785;DHT22;31489;51.404;5.474;2023-03-14T16:51:31;11.70;51.20